AQQ10 IFIS: Internet Flight Information System
logo dgac
Miércoles 19 de Junio del 2024
Buscar por aerodromo o helipuerto
Ingrese nombre de aeródromo, localidad o designador OACI:
METAR del 19-06-2024 a las 11:00 UTC
Para mayor información visite www.meteochile.gob.cl
METAR SCIE 191100Z 11004KT 9999 BKN049 08/08 Q1019
Viento: dirección 110 grados, velocidad 4 nudos
Visibilidad: 10 km o más
Nubes: Nublado a 4900 pies sobre el nivel del aeródromo
Temperatura: 8 °C
Rocío: 8 °C
Humedad_relativa: 100%
Presión: 1019 hPa
METAR del 19-06-2024 a las 10:00 UTC
Para mayor información visite www.meteochile.gob.cl
METAR SCIE 191000Z 12005KT 9999 FEW016 BKN049 08/07 Q1019
Viento: dirección 120 grados, velocidad 5 nudos
Visibilidad: 10 km o más
Nubes: Escasa nubosidad a 1600 pies sobre el nivel del aeródromo
Nubes: Nublado a 4900 pies sobre el nivel del aeródromo
Temperatura: 8 °C
Rocío: 7 °C
Humedad_relativa: 93%
Presión: 1019 hPa
METAR del 19-06-2024 a las 09:00 UTC
Para mayor información visite www.meteochile.gob.cl
METAR SCIE 190900Z 10005KT 9999 SCT035 OVC040 08/07 Q1019 RESHRA
Viento: dirección 100 grados, velocidad 5 nudos
Visibilidad: 10 km o más
Nubes: Nubosidad parcial a 3500 pies sobre el nivel del aeródromo
Nubes: Cubierto a 4000 pies sobre el nivel del aeródromo
Temperatura: 8 °C
Rocío: 7 °C
Humedad_relativa: 93%
Presión: 1019 hPa
Se observó recientemente ChubascosLluvia
METAR del 19-06-2024 a las 08:00 UTC
Para mayor información visite www.meteochile.gob.cl
METAR SCIE 190800Z 19006KT 8000 -SHRA SCT010 OVC040 07/07 Q1018
Viento: dirección 190 grados, velocidad 6 nudos
Visibilidad: 8000 metros
Débil ChubascosLluvia
Nubes: Nubosidad parcial a 1000 pies sobre el nivel del aeródromo
Nubes: Cubierto a 4000 pies sobre el nivel del aeródromo
Temperatura: 7 °C
Rocío: 7 °C
Humedad_relativa: 100%
Presión: 1018 hPa
METAR del 19-06-2024 a las 07:00 UTC
Para mayor información visite www.meteochile.gob.cl
METAR SCIE 190700Z 14004KT 9999 BKN049 07/07 Q1018
Viento: dirección 140 grados, velocidad 4 nudos
Visibilidad: 10 km o más
Nubes: Nublado a 4900 pies sobre el nivel del aeródromo
Temperatura: 7 °C
Rocío: 7 °C
Humedad_relativa: 100%
Presión: 1018 hPa
METAR del 19-06-2024 a las 06:00 UTC
Para mayor información visite www.meteochile.gob.cl
METAR SCIE 190600Z 16003KT 6000 FEW049 SCT080 08/07 Q1018
Viento: dirección 160 grados, velocidad 3 nudos
Visibilidad: 6000 metros
Nubes: Escasa nubosidad a 4900 pies sobre el nivel del aeródromo
Nubes: Nubosidad parcial a 8000 pies sobre el nivel del aeródromo
Temperatura: 8 °C
Rocío: 7 °C
Humedad_relativa: 93%
Presión: 1018 hPa
METAR del 19-06-2024 a las 05:00 UTC
Para mayor información visite www.meteochile.gob.cl
METAR SCIE 190500Z 00000KT 4500 BR BKN049 08/08 Q1018
Visibilidad: 4500 metros
Neblina
Nubes: Nublado a 4900 pies sobre el nivel del aeródromo
Temperatura: 8 °C
Rocío: 8 °C
Humedad_relativa: 100%
Presión: 1018 hPa
METAR del 19-06-2024 a las 04:00 UTC
Para mayor información visite www.meteochile.gob.cl
METAR SCIE 190400Z 00000KT 4000 BR BKN048 08/07 Q1017
Visibilidad: 4000 metros
Neblina
Nubes: Nublado a 4800 pies sobre el nivel del aeródromo
Temperatura: 8 °C
Rocío: 7 °C
Humedad_relativa: 93%
Presión: 1017 hPa
METAR del 19-06-2024 a las 03:00 UTC
Para mayor información visite www.meteochile.gob.cl
METAR SCIE 190300Z VRB01KT 4000 BR BKN049 08/07 Q1017
Viento: dirección variable, velocidad 1 nudos
Visibilidad: 4000 metros
Neblina
Nubes: Nublado a 4900 pies sobre el nivel del aeródromo
Temperatura: 8 °C
Rocío: 7 °C
Humedad_relativa: 93%
Presión: 1017 hPa
METAR del 19-06-2024 a las 02:00 UTC
Para mayor información visite www.meteochile.gob.cl
METAR SCIE 190200Z VRB02KT 4000 BR FEW040 08/08 Q1016
Viento: dirección variable, velocidad 2 nudos
Visibilidad: 4000 metros
Neblina
Nubes: Escasa nubosidad a 4000 pies sobre el nivel del aeródromo
Temperatura: 8 °C
Rocío: 8 °C
Humedad_relativa: 100%
Presión: 1016 hPa